Time;durP1;ratioP1;P1;durP2;ratioP2;P2;SDS_P1;SDS_P2;PMS_P1;PMS_P2;Temp;Humidity;BMP_temperature;BMP_pressure;BME280_temperature;BME280_humidity;BME280_pressure;Samples;Min_cycle;Max_cycle;Signal;HPM_P1;HPM_P2
2021/09/05 00:02:06;;;;;;;;;15.00;15.00;;;;;21.07;65.80;100899.34;5099674;27;45393;-60
2021/09/05 00:04:31;;;;;;;;;17.75;16.50;;;;;21.06;65.30;100893.19;5098858;27;63269;-60
2021/09/05 00:06:57;;;;;;;;;16.75;16.00;;;;;21.05;65.43;100891.53;5099220;27;45402;-60
2021/09/05 00:09:22;;;;;;;;;19.50;16.25;;;;;21.04;65.53;100889.88;5099269;27;46097;-60
2021/09/05 00:11:47;;;;;;;;;21.25;16.00;;;;;21.04;66.10;100892.56;5098579;27;63867;-59
2021/09/05 00:14:13;;;;;;;;;19.00;16.00;;;;;21.05;66.26;100888.84;5098260;27;65266;-60
2021/09/05 00:16:38;;;;;;;;;17.50;16.00;;;;;21.03;65.85;100886.38;5098406;27;63682;-59
2021/09/05 00:19:04;;;;;;;;;15.00;15.00;;;;;21.05;65.97;100892.34;5099062;27;45969;-59
2021/09/05 00:21:29;;;;;;;;;19.75;15.75;;;;;21.07;66.03;100884.16;5079448;27;66986;-59
2021/09/05 00:23:54;;;;;;;;;16.50;14.00;;;;;21.07;66.32;100888.66;5099042;27;45522;-60
2021/09/05 00:26:20;;;;;;;;;15.00;14.25;;;;;21.09;65.78;100881.25;5098540;27;61914;-60
2021/09/05 00:28:45;;;;;;;;;15.25;14.25;;;;;21.08;65.90;100880.44;5099004;27;46310;-61
2021/09/05 00:31:10;;;;;;;;;18.50;14.00;;;;;21.08;66.28;100876.94;5098206;27;67584;-59
2021/09/05 00:33:36;;;;;;;;;16.00;15.75;;;;;21.10;66.39;100878.41;5098571;27;57944;-59
2021/09/05 00:36:02;;;;;;;;;16.25;14.75;;;;;21.08;66.62;100875.09;5099105;27;45175;-60
2021/09/05 00:38:27;;;;;;;;;16.50;16.50;;;;;21.12;66.44;100880.88;5098814;27;46044;-60
2021/09/05 00:40:53;;;;;;;;;16.75;16.50;;;;;21.12;66.47;100876.38;5097908;27;70724;-60
2021/09/05 00:43:18;;;;;;;;;14.25;14.00;;;;;21.12;66.77;100878.19;5097078;27;61356;-61
2021/09/05 00:45:43;;;;;;;;;19.25;15.75;;;;;21.12;67.05;100880.88;5098873;27;45557;-60
2021/09/05 00:48:09;;;;;;;;;16.25;15.75;;;;;21.10;66.51;100881.09;5097816;27;71579;-60
2021/09/05 00:50:35;;;;;;;;;19.75;15.00;;;;;21.07;67.01;100881.47;5097660;27;45335;-60
2021/09/05 00:53:00;;;;;;;;;16.50;16.50;;;;;21.09;66.56;100876.75;5098812;27;45382;-59
2021/09/05 00:55:25;;;;;;;;;16.25;14.25;;;;;21.11;66.81;100877.38;5097993;27;57340;-59
2021/09/05 00:57:51;;;;;;;;;16.75;13.00;;;;;21.08;67.15;100869.78;5097565;27;66638;-60
2021/09/05 01:00:19;;;;;;;;;19.25;18.25;;;;;21.07;66.90;100878.81;5098533;27;45457;-60
2021/09/05 01:02:44;;;;;;;;;17.00;15.50;;;;;21.07;67.11;100876.13;5098904;27;45639;-60
2021/09/05 01:05:10;;;;;;;;;21.50;18.00;;;;;21.05;66.93;100878.16;5098663;27;45400;-59
2021/09/05 01:07:36;;;;;;;;;16.50;16.50;;;;;21.04;67.23;100873.84;5098188;27;52173;-60
2021/09/05 01:10:01;;;;;;;;;16.25;15.50;;;;;21.04;66.64;100877.34;5098557;27;45414;-60
2021/09/05 01:12:27;;;;;;;;;18.25;17.25;;;;;21.04;66.96;100872.00;5080287;27;45524;-60
2021/09/05 01:14:52;;;;;;;;;14.50;14.50;;;;;21.05;67.13;100878.16;5079459;27;45577;-60
2021/09/05 01:17:18;;;;;;;;;17.50;15.75;;;;;21.04;67.33;100871.19;5098258;27;45259;-60
2021/09/05 01:19:43;;;;;;;;;16.25;15.25;;;;;21.04;66.86;100873.84;5097315;27;66695;-60
2021/09/05 01:22:08;;;;;;;;;17.00;13.25;;;;;21.04;67.32;100873.84;5097317;27;64204;-59
2021/09/05 01:24:34;;;;;;;;;14.25;14.25;;;;;21.06;66.29;100877.16;5097779;27;59439;-60
2021/09/05 01:26:59;;;;;;;;;17.50;15.25;;;;;21.07;66.92;100873.47;5097206;27;72282;-59
2021/09/05 01:29:25;;;;;;;;;17.75;16.25;;;;;21.06;66.49;100874.47;5097142;27;72673;-60
2021/09/05 01:31:52;;;;;;;;;18.25;16.00;;;;;21.06;66.72;100877.16;5097608;27;45461;-60
2021/09/05 01:34:19;;;;;;;;;20.00;15.50;;;;;21.05;67.11;100872.84;5098265;27;45305;-60
2021/09/05 01:36:44;;;;;;;;;17.00;15.00;;;;;21.04;66.86;100876.53;5098085;27;45295;-60
2021/09/05 01:39:11;;;;;;;;;19.50;16.00;;;;;21.02;66.49;100879.38;5097207;27;45339;-60
2021/09/05 01:41:37;;;;;;;;;15.25;14.75;;;;;21.01;66.59;100884.94;5097136;27;45358;-60
2021/09/05 01:44:04;;;;;;;;;12.00;12.00;;;;;20.99;66.60;100879.78;5098073;27;45676;-60
2021/09/05 01:46:30;;;;;;;;;20.25;15.00;;;;;20.96;66.28;100892.72;5097854;27;45352;-60
2021/09/05 01:48:55;;;;;;;;;16.75;15.25;;;;;20.94;66.83;100881.38;5097808;27;45321;-59
2021/09/05 01:51:21;;;;;;;;;16.00;13.75;;;;;20.90;66.92;100881.78;5079215;27;45371;-59
2021/09/05 01:53:46;;;;;;;;;15.00;15.00;;;;;20.89;66.73;100892.69;5097131;27;55598;-60
2021/09/05 01:56:11;;;;;;;;;18.25;15.75;;;;;20.88;66.31;100893.69;5096335;27;73994;-60
2021/09/05 01:58:37;;;;;;;;;13.50;11.25;;;;;20.87;66.33;100903.53;5096958;27;65641;-60
2021/09/05 02:01:02;;;;;;;;;15.00;14.00;;;;;20.85;66.58;100902.91;5096938;27;65872;-60
2021/09/05 02:03:27;;;;;;;;;14.25;12.75;;;;;20.83;66.14;100904.94;5097711;27;45295;-60
2021/09/05 02:05:53;;;;;;;;;16.00;12.75;;;;;20.82;66.87;100905.97;5096463;27;74930;-60
2021/09/05 02:08:18;;;;;;;;;16.00;13.25;;;;;20.79;66.83;100901.00;5096805;27;67276;-60
2021/09/05 02:10:44;;;;;;;;;13.50;12.50;;;;;20.77;66.94;100895.03;5097330;27;45387;-59
2021/09/05 02:13:09;;;;;;;;;14.50;14.00;;;;;20.77;67.08;100895.03;5097094;27;53054;-60
2021/09/05 02:15:34;;;;;;;;;15.00;13.25;;;;;20.78;66.96;100896.69;5096738;27;62168;-60
2021/09/05 02:18:00;;;;;;;;;16.25;14.50;;;;;20.76;66.81;100896.03;5096747;27;63821;-60
2021/09/05 02:20:25;;;;;;;;;18.00;16.25;;;;;20.74;66.76;100904.25;5096636;27;64059;-60
2021/09/05 02:22:50;;;;;;;;;16.75;13.25;;;;;20.73;66.55;100905.28;5097186;27;45207;-59
2021/09/05 02:25:16;;;;;;;;;14.00;13.25;;;;;20.73;66.80;100905.28;5096969;27;53428;-60
2021/09/05 02:27:41;;;;;;;;;17.25;15.75;;;;;20.72;66.81;100898.28;5096659;27;63709;-59
2021/09/05 02:30:09;;;;;;;;;14.75;14.00;;;;;20.70;66.57;100899.47;5096660;27;67600;-59
2021/09/05 02:32:34;;;;;;;;;16.75;14.00;;;;;20.69;66.53;100901.34;5097441;27;45579;-60
2021/09/05 02:35:00;;;;;;;;;15.75;12.50;;;;;20.67;66.93;100899.88;5096623;27;60712;-60
2021/09/05 02:37:25;;;;;;;;;17.25;16.00;;;;;20.67;66.44;100894.53;5096232;27;72250;-60
2021/09/05 02:39:50;;;;;;;;;20.00;15.00;;;;;20.67;66.57;100889.19;5096466;27;63350;-59
2021/09/05 02:42:16;;;;;;;;;18.75;15.00;;;;;20.67;66.94;100890.03;5096871;27;51320;-59
2021/09/05 02:44:41;;;;;;;;;17.50;14.75;;;;;20.68;66.89;100896.19;5096270;27;72268;-60
2021/09/05 02:47:07;;;;;;;;;20.00;16.00;;;;;20.68;66.77;100896.19;5096438;27;65007;-60
2021/09/05 02:49:32;;;;;;;;;17.00;14.75;;;;;20.67;66.59;100894.53;5096186;27;45387;-59
2021/09/05 02:51:57;;;;;;;;;14.25;14.25;;;;;20.64;66.32;100892.28;5096727;27;56214;-60
2021/09/05 02:54:23;;;;;;;;;18.25;15.50;;;;;20.64;66.35;100894.94;5078098;27;65664;-59
2021/09/05 02:56:48;;;;;;;;;15.75;14.75;;;;;20.60;66.70;100889.97;5097088;27;45421;-60
2021/09/05 02:59:16;;;;;;;;;18.75;16.00;;;;;20.61;66.29;100891.63;5096344;27;65408;-60
2021/09/05 03:01:41;;;;;;;;;17.00;15.25;;;;;20.59;66.52;100890.16;5097022;27;45211;-59
2021/09/05 03:04:06;;;;;;;;;16.75;13.00;;;;;20.58;66.34;100897.38;5096006;27;68120;-59
2021/09/05 03:06:32;;;;;;;;;17.50;14.00;;;;;20.57;66.73;100889.53;5078243;27;68778;-59
2021/09/05 03:08:57;;;;;;;;;17.50;14.75;;;;;20.59;66.26;100888.34;5099963;27;61633;-60
2021/09/05 03:11:22;;;;;;;;;14.25;14.25;;;;;20.58;66.19;100897.38;5100060;27;58830;-60
2021/09/05 03:13:48;;;;;;;;;17.00;15.50;;;;;20.58;66.25;100892.03;5100124;27;55695;-59
2021/09/05 03:16:14;;;;;;;;;14.25;14.00;;;;;20.57;66.23;100894.88;5100295;27;45312;-60
2021/09/05 03:18:39;;;;;;;;;19.25;16.00;;;;;20.57;66.70;100892.19;5100484;27;45336;-60
2021/09/05 03:21:05;;;;;;;;;15.50;13.50;;;;;20.57;66.62;100890.38;5099996;27;47315;-60
2021/09/05 03:23:30;;;;;;;;;15.50;13.75;;;;;20.57;66.72;100895.72;5100254;27;45996;-59
2021/09/05 03:25:55;;;;;;;;;15.25;13.00;;;;;20.55;66.39;100889.75;5099369;27;70339;-59
2021/09/05 03:28:21;;;;;;;;;17.25;15.00;;;;;20.53;66.68;100889.09;5099480;27;66043;-60
2021/09/05 03:30:46;;;;;;;;;11.50;11.50;;;;;20.51;66.34;100890.31;5099743;27;63031;-60
2021/09/05 03:33:11;;;;;;;;;17.50;15.50;;;;;20.47;66.89;100895.22;5099762;27;61431;-60
2021/09/05 03:35:37;;;;;;;;;13.75;13.75;;;;;20.48;66.85;100883.53;5099054;27;73445;-59
2021/09/05 03:38:02;;;;;;;;;13.50;13.00;;;;;20.49;66.78;100884.31;5099640;27;57973;-60
2021/09/05 03:40:27;;;;;;;;;16.50;15.00;;;;;20.48;66.31;100888.84;5081839;27;45348;-60
2021/09/05 03:42:53;;;;;;;;;15.50;12.25;;;;;20.50;66.34;100881.47;5080777;27;73043;-60
2021/09/05 03:45:18;;;;;;;;;14.50;13.25;;;;;20.51;66.75;100885.81;5099346;27;65353;-59
2021/09/05 03:47:44;;;;;;;;;13.50;12.75;;;;;20.51;66.56;100885.81;5100084;27;45428;-59
2021/09/05 03:50:09;;;;;;;;;15.25;14.50;;;;;20.50;66.27;100886.81;5080770;27;61287;-60
2021/09/05 03:52:35;;;;;;;;;16.50;13.00;;;;;20.52;66.64;100891.94;5099799;27;46290;-59
2021/09/05 03:55:01;;;;;;;;;15.75;14.50;;;;;20.50;66.69;100884.16;5099978;27;45315;-59
2021/09/05 03:57:26;;;;;;;;;14.50;10.75;;;;;20.51;66.67;100879.63;5099977;27;45633;-60
2021/09/05 03:59:52;;;;;;;;;12.00;11.00;;;;;20.50;66.39;100888.66;5098970;27;66563;-60
2021/09/05 04:02:17;;;;;;;;;14.00;14.00;;;;;20.47;66.47;100884.53;5098866;27;69744;-60
2021/09/05 04:04:42;;;;;;;;;14.00;14.00;;;;;20.45;66.83;100890.06;5099039;27;66452;-59
2021/09/05 04:07:11;;;;;;;;;14.50;13.00;;;;;20.44;66.79;100885.72;5099099;27;59913;-60
2021/09/05 04:12:20;;;;;;;;;17.75;13.75;;;;;;;;5099568;27;45329;-60
2021/09/05 04:14:45;;;;;;;;;16.00;13.67;;;;;20.41;66.50;100891.44;5098905;27;63937;-60
2021/09/05 04:17:11;;;;;;;;;11.25;11.25;;;;;20.42;66.78;100894.97;5098627;27;62594;-60
2021/09/05 04:19:36;;;;;;;;;15.00;12.00;;;;;20.41;66.29;100893.31;5098242;27;68449;-59
2021/09/05 04:22:02;;;;;;;;;14.25;13.00;;;;;20.41;66.32;100890.66;5097890;27;71833;-60
2021/09/05 04:24:28;;;;;;;;;15.00;13.00;;;;;20.41;66.35;100896.78;5097789;27;46081;-60
2021/09/05 04:26:53;;;;;;;;;14.75;14.25;;;;;20.41;66.79;100894.13;5098632;27;65820;-60
2021/09/05 04:29:19;;;;;;;;;14.00;12.00;;;;;20.41;66.30;100895.97;5099420;27;45640;-59
2021/09/05 04:31:46;;;;;;;;;11.00;9.00;;;;;20.39;66.38;100890.84;5098245;27;75027;-60
2021/09/05 04:34:11;;;;;;;;;15.25;12.50;;;;;20.40;66.31;100894.31;5099170;27;47411;-59
2021/09/05 04:36:37;;;;;;;;;14.75;13.00;;;;;20.38;66.41;100899.88;5098605;27;62633;-59
2021/09/05 04:39:02;;;;;;;;;15.50;12.25;;;;;20.38;66.73;100902.53;5098353;27;61922;-60
2021/09/05 04:41:28;;;;;;;;;14.25;12.25;;;;;20.37;66.46;100908.06;5098519;27;46236;-60
2021/09/05 04:43:53;;;;;;;;;14.25;14.00;;;;;20.36;66.38;100914.41;5099182;27;45366;-60
2021/09/05 04:46:18;;;;;;;;;17.50;14.75;;;;;20.33;66.91;100918.31;5098383;27;61022;-60
2021/09/05 04:48:44;;;;;;;;;14.25;14.00;;;;;20.32;66.55;100921.97;5099167;27;45546;-60
2021/09/05 04:51:09;;;;;;;;;17.25;14.00;;;;;20.31;66.66;100928.34;5097891;27;75587;-60
2021/09/05 04:53:34;;;;;;;;;14.75;14.00;;;;;20.29;66.95;100925.84;5098140;27;65049;-60
2021/09/05 04:56:00;;;;;;;;;17.00;13.00;;;;;20.28;67.02;100929.53;5098081;27;64118;-59
2021/09/05 04:58:25;;;;;;;;;18.00;16.75;;;;;20.28;67.02;100928.72;5079718;27;64911;-60
2021/09/05 05:00:51;;;;;;;;;14.00;14.00;;;;;20.29;66.79;100928.50;5097956;27;69390;-59
2021/09/05 05:03:17;;;;;;;;;14.75;13.50;;;;;20.28;67.18;100936.72;5097912;27;69066;-60
2021/09/05 05:05:42;;;;;;;;;12.75;11.50;;;;;20.26;66.82;100931.56;5098936;27;45322;-60
2021/09/05 05:08:07;;;;;;;;;14.25;13.00;;;;;20.26;67.48;100933.41;5098286;27;58556;-59
2021/09/05 05:10:33;;;;;;;;;22.75;15.50;;;;;20.27;67.64;100937.75;5098737;27;45399;-60
2021/09/05 05:12:58;;;;;;;;;17.75;14.25;;;;;20.27;66.87;100938.56;5098356;27;51940;-59
2021/09/05 05:15:24;;;;;;;;;13.75;12.75;;;;;20.29;66.76;100936.53;5098698;27;45326;-60
2021/09/05 05:17:49;;;;;;;;;16.00;14.50;;;;;20.30;66.75;100948.84;5098024;27;61375;-59
2021/09/05 05:20:15;;;;;;;;;15.50;14.00;;;;;20.30;67.01;100943.50;5097513;27;68120;-60
2021/09/05 05:22:40;;;;;;;;;16.50;16.00;;;;;20.30;66.69;100948.03;5098275;27;45222;-61
2021/09/05 05:25:06;;;;;;;;;16.75;15.00;;;;;20.28;67.03;100955.41;5098648;27;45230;-59
2021/09/05 05:27:32;;;;;;;;;15.00;13.75;;;;;20.26;66.65;100952.09;5098482;27;45165;-60
2021/09/05 05:29:57;;;;;;;;;13.00;12.00;;;;;20.22;67.24;100956.97;5097755;27;45290;-60
2021/09/05 05:32:23;;;;;;;;;11.75;11.75;;;;;20.20;66.90;100963.53;5097443;27;68877;-58
2021/09/05 05:34:48;;;;;;;;;15.50;13.00;;;;;20.17;67.40;100960.22;5097754;27;59739;-60
2021/09/05 05:37:14;;;;;;;;;14.25;14.00;;;;;20.15;66.88;100969.41;5097828;27;56147;-60
2021/09/05 05:39:40;;;;;;;;;14.50;13.75;;;;;20.14;67.29;100960.59;5097206;27;46180;-59
2021/09/05 05:42:05;;;;;;;;;14.75;13.75;;;;;20.15;66.98;100969.41;5097078;27;68568;-60
2021/09/05 05:44:30;;;;;;;;;14.50;13.50;;;;;20.15;67.53;100970.25;5097203;27;69215;-60
2021/09/05 05:46:56;;;;;;;;;15.00;13.75;;;;;20.17;67.33;100972.72;5097011;27;69433;-60
2021/09/05 05:49:21;;;;;;;;;14.00;13.75;;;;;20.17;67.17;100980.72;5097047;27;68151;-59
2021/09/05 05:51:46;;;;;;;;;15.00;13.00;;;;;20.16;67.48;100976.41;5097888;27;45467;-61
2021/09/05 05:54:15;;;;;;;;;15.25;12.00;;;;;20.17;67.18;100980.72;5097198;27;62317;-60
2021/09/05 05:56:42;;;;;;;;;15.75;15.75;;;;;20.16;67.08;100973.72;5097814;27;45576;-60
2021/09/05 05:59:08;;;;;;;;;16.50;14.50;;;;;20.15;67.55;100970.25;5097431;27;46183;-59
2021/09/05 06:01:33;;;;;;;;;16.50;14.50;;;;;20.16;67.19;100969.25;5097046;27;61960;-60
2021/09/05 06:03:58;;;;;;;;;14.00;13.00;;;;;20.16;67.64;100974.56;5096874;27;67350;-60
2021/09/05 06:06:24;;;;;;;;;16.00;13.50;;;;;20.17;67.26;100975.38;5096763;27;67266;-59
2021/09/05 06:08:49;;;;;;;;;13.25;12.25;;;;;20.17;67.85;100983.38;5096521;27;70736;-59
2021/09/05 06:11:14;;;;;;;;;15.00;13.00;;;;;20.16;67.41;100979.91;5097397;27;45574;-60
2021/09/05 06:13:40;;;;;;;;;13.25;13.25;;;;;20.16;67.35;100979.06;5097757;27;45304;-59
2021/09/05 06:16:05;;;;;;;;;15.75;14.25;;;;;20.19;67.61;100986.69;5096415;27;62892;-59
2021/09/05 06:18:31;;;;;;;;;16.25;13.25;;;;;20.20;67.41;100988.34;5096233;27;65104;-60
2021/09/05 06:20:56;;;;;;;;;14.50;14.50;;;;;20.22;67.71;100993.50;5096156;27;69347;-60
2021/09/05 06:23:21;;;;;;;;;12.25;12.25;;;;;20.24;67.42;100994.97;5096614;27;65084;-60
2021/09/05 06:25:47;;;;;;;;;16.00;15.75;;;;;20.26;67.71;101000.13;5097486;27;45318;-60
2021/09/05 06:28:12;;;;;;;;;16.25;13.00;;;;;20.28;67.23;100993.56;5096743;27;46587;-60
2021/09/05 06:30:38;;;;;;;;;16.50;16.50;;;;;20.32;67.20;101002.03;5096241;27;67736;-60
2021/09/05 06:33:03;;;;;;;;;19.25;16.25;;;;;20.33;66.94;101001.03;5097348;27;45418;-60
2021/09/05 06:35:29;;;;;;;;;16.50;16.00;;;;;20.37;66.97;101012.13;5078799;27;45717;-60
2021/09/05 06:37:54;;;;;;;;;14.25;14.25;;;;;20.38;66.54;101016.44;5078903;27;45423;-60
2021/09/05 06:40:20;;;;;;;;;14.25;14.25;;;;;20.39;66.16;101012.78;5095868;27;73067;-61
2021/09/05 06:42:45;;;;;;;;;16.75;15.00;;;;;20.40;66.16;101017.91;5095116;27;64655;-60
2021/09/05 06:45:11;;;;;;;;;17.75;14.25;;;;;20.40;66.23;101012.56;5097163;27;45157;-60
2021/09/05 06:47:36;;;;;;;;;17.75;14.50;;;;;20.44;65.50;101021.03;5096918;27;45929;-59
2021/09/05 06:50:02;;;;;;;;;14.00;14.00;;;;;20.44;65.86;101018.38;5096159;27;68264;-61
2021/09/05 06:52:27;;;;;;;;;18.75;16.00;;;;;20.46;65.41;101027.81;5097084;27;45415;-60
2021/09/05 06:54:52;;;;;;;;;16.50;15.75;;;;;20.47;66.14;101023.34;5096516;27;55239;-60
2021/09/05 06:57:18;;;;;;;;;16.25;16.25;;;;;20.46;65.22;101033.16;5097027;27;45267;-60
2021/09/05 06:59:43;;;;;;;;;17.25;15.75;;;;;20.51;65.47;101035.28;5095965;27;67319;-59
2021/09/05 07:02:09;;;;;;;;;15.00;14.25;;;;;20.54;65.21;101037.56;5096706;27;48064;-61
2021/09/05 07:04:34;;;;;;;;;13.25;13.25;;;;;20.56;65.85;101045.38;5095779;27;70225;-60
2021/09/05 07:06:59;;;;;;;;;12.25;12.25;;;;;20.58;65.53;101043.34;5096200;27;45987;-60
2021/09/05 07:09:25;;;;;;;;;17.25;16.50;;;;;20.61;65.46;101045.63;5095798;27;68313;-59
2021/09/05 07:11:50;;;;;;;;;15.25;13.00;;;;;20.63;65.21;101043.59;5096016;27;64066;-60
2021/09/05 07:14:15;;;;;;;;;21.25;16.75;;;;;20.65;65.37;101046.09;5095859;27;65748;-59
2021/09/05 07:16:41;;;;;;;;;20.25;16.50;;;;;20.68;65.31;101053.69;5095476;27;71153;-58
2021/09/05 07:19:06;;;;;;;;;15.50;15.00;;;;;20.70;65.38;101057.00;5096330;27;45333;-60
2021/09/05 07:21:32;;;;;;;;;18.00;15.50;;;;;20.74;65.22;101056.47;5095915;27;56678;-59
2021/09/05 07:23:57;;;;;;;;;18.00;14.50;;;;;20.75;64.71;101057.25;5095990;27;57224;-58
2021/09/05 07:26:23;;;;;;;;;18.75;15.25;;;;;20.78;65.53;101062.25;5095972;27;45312;-59
2021/09/05 07:28:48;;;;;;;;;15.25;15.00;;;;;20.80;64.78;101054.88;5095352;27;70693;-60
2021/09/05 07:31:13;;;;;;;;;14.25;14.25;;;;;20.83;64.50;101059.84;5095489;27;65453;-59
2021/09/05 07:33:39;;;;;;;;;16.00;15.00;;;;;20.86;64.33;101064.81;5095451;27;65169;-60
2021/09/05 07:36:04;;;;;;;;;16.75;15.00;;;;;20.89;64.07;101055.59;5095772;27;59881;-60
2021/09/05 07:38:30;;;;;;;;;17.25;15.00;;;;;20.93;64.07;101059.50;5095432;27;45465;-60
2021/09/05 07:40:55;;;;;;;;;15.00;14.00;;;;;20.98;63.88;101056.28;5096297;27;45372;-60
2021/09/05 07:43:20;;;;;;;;;15.00;13.75;;;;;21.01;64.06;101061.25;5095655;27;60823;-60
2021/09/05 07:45:46;;;;;;;;;15.75;13.50;;;;;21.05;63.38;101055.31;5096282;27;45437;-60
2021/09/05 07:48:12;;;;;;;;;15.75;13.25;;;;;21.11;63.38;101063.56;5095538;27;61594;-60
2021/09/05 07:50:37;;;;;;;;;15.25;14.00;;;;;21.15;63.79;101063.00;5095679;27;62537;-58
2021/09/05 07:53:02;;;;;;;;;16.00;12.00;;;;;21.22;63.92;101072.91;5096880;27;58878;-61
2021/09/05 07:55:28;;;;;;;;;17.25;14.50;;;;;21.28;63.77;101078.31;5099257;27;56039;-59
2021/09/05 07:57:53;;;;;;;;;14.00;14.00;;;;;21.34;63.65;101079.38;5080767;27;59927;-60
2021/09/05 08:00:19;;;;;;;;;15.00;14.00;;;;;21.39;62.91;101078.81;5098838;27;60524;-61
2021/09/05 08:02:44;;;;;;;;;18.75;17.00;;;;;21.41;62.99;101080.25;5099725;27;45344;-61
2021/09/05 08:05:10;;;;;;;;;19.25;15.75;;;;;21.48;63.30;101086.47;5098839;27;46233;-59
2021/09/05 08:07:36;;;;;;;;;16.00;16.00;;;;;21.53;62.59;101085.06;5099429;27;45247;-59
2021/09/05 08:10:02;;;;;;;;;13.50;12.25;;;;;21.55;63.00;101091.03;5099463;27;45677;-60
2021/09/05 08:12:27;;;;;;;;;12.00;12.00;;;;;21.63;63.09;101080.22;5099523;27;45306;-60
2021/09/05 08:14:53;;;;;;;;;17.00;15.00;;;;;21.78;62.99;101088.13;5099380;27;45875;-59
2021/09/05 08:17:18;;;;;;;;;15.00;13.25;;;;;21.92;61.94;101089.03;5099189;27;45319;-60
2021/09/05 08:19:43;;;;;;;;;15.75;14.25;;;;;22.08;61.51;101091.38;5098490;27;62011;-59
2021/09/05 08:22:09;;;;;;;;;16.50;16.00;;;;;22.20;60.97;101096.97;5080362;27;45228;-61
2021/09/05 08:24:34;;;;;;;;;20.00;17.00;;;;;22.33;61.09;101090.81;5098659;27;57131;-60
2021/09/05 08:27:00;;;;;;;;;15.50;12.75;;;;;22.48;60.40;101095.25;5098454;27;60634;-60
2021/09/05 08:29:25;;;;;;;;;14.00;14.00;;;;;22.64;60.33;101102.06;5099286;27;45241;-60
2021/09/05 08:31:50;;;;;;;;;11.25;11.00;;;;;22.85;59.42;101106.44;5099311;27;45228;-61
2021/09/05 08:34:16;;;;;;;;;16.25;12.75;;;;;23.08;59.17;101107.91;5098864;27;49676;-59
2021/09/05 08:36:41;;;;;;;;;13.00;13.00;;;;;23.35;58.43;101102.56;5098141;27;72508;-60
2021/09/05 08:39:06;;;;;;;;;13.00;11.25;;;;;23.61;58.10;101108.94;5098094;27;61821;-61
2021/09/05 08:41:32;;;;;;;;;11.75;11.00;;;;;23.90;57.50;101117.53;5097699;27;62133;-61
2021/09/05 08:43:58;;;;;;;;;13.00;11.50;;;;;24.20;56.76;101109.81;5079726;27;69400;-60
2021/09/05 08:46:24;;;;;;;;;14.00;12.75;;;;;24.50;55.84;101111.13;5098500;27;45366;-60
2021/09/05 08:48:49;;;;;;;;;14.00;12.75;;;;;24.77;55.52;101113.69;5098840;27;45382;-59
2021/09/05 08:51:15;;;;;;;;;15.75;14.50;;;;;25.01;54.13;101115.56;5098888;27;45451;-61
2021/09/05 08:53:40;;;;;;;;;13.50;13.25;;;;;25.20;53.76;101118.34;5097929;27;68611;-59
2021/09/05 08:56:06;;;;;;;;;15.75;14.00;;;;;25.37;53.38;101112.41;5098393;27;52834;-60
2021/09/05 08:58:31;;;;;;;;;13.00;12.75;;;;;25.57;53.30;101120.31;5098593;27;52365;-59
2021/09/05 09:00:56;;;;;;;;;13.75;11.75;;;;;25.77;52.78;101117.41;5097846;27;66346;-61
2021/09/05 09:03:22;;;;;;;;;11.50;11.25;;;;;26.00;52.38;101121.28;5097951;27;65383;-61
2021/09/05 09:05:53;;;;;;;;;14.00;12.00;;;;;26.23;51.67;101126.00;5097578;27;45270;-60
2021/09/05 09:08:19;;;;;;;;;14.00;12.75;;;;;26.46;50.99;101124.47;5098701;27;45266;-61
2021/09/05 09:10:56;;;;;;;;;11.75;11.00;;;;;26.70;50.60;101119.19;5098572;27;45410;-59
2021/09/05 09:13:41;;;;;;;;;12.25;12.00;;;;;26.94;49.99;101123.59;5079904;27;45467;-60
2021/09/05 09:16:08;;;;;;;;;12.00;12.00;;;;;27.16;49.60;101117.66;5079536;27;45827;-60
2021/09/05 09:18:35;;;;;;;;;12.00;11.00;;;;;27.35;48.92;101120.22;5098388;27;45338;-60
2021/09/05 09:21:01;;;;;;;;;12.50;11.00;;;;;27.56;48.83;101126.94;5097853;27;45509;-60
2021/09/05 09:23:28;;;;;;;;;15.50;12.00;;;;;27.78;48.27;101121.78;5079527;27;46333;-60
2021/09/05 09:26:01;;;;;;;;;15.50;13.50;;;;;27.99;48.08;101127.59;5098062;27;45272;-60
2021/09/05 09:28:42;;;;;;;;;14.50;11.50;;;;;28.14;47.01;101121.69;5098248;27;45372;-59
2021/09/05 09:31:16;;;;;;;;;12.75;11.00;;;;;28.25;46.27;101128.16;5098392;27;45615;-61
2021/09/05 09:33:46;;;;;;;;;11.00;9.25;;;;;28.37;46.37;101128.09;5079562;27;46419;-61
2021/09/05 09:36:16;;;;;;;;;14.00;11.75;;;;;28.48;46.03;101129.94;5097890;27;45271;-60
2021/09/05 09:39:00;;;;;;;;;10.00;10.00;;;;;28.61;45.45;101131.50;5098292;27;45405;-60
2021/09/05 09:41:32;;;;;;;;;11.75;8.75;;;;;28.71;44.70;101133.56;5098402;27;45375;-62
2021/09/05 09:43:57;;;;;;;;;11.75;11.75;;;;;28.78;44.87;101134.25;5079788;27;46965;-60
2021/09/05 09:46:25;;;;;;;;;10.75;9.75;;;;;28.86;44.85;101135.75;5097941;27;45309;-61
2021/09/05 09:48:55;;;;;;;;;9.50;7.50;;;;;28.94;43.82;101134.53;5097990;27;45338;-61
2021/09/05 09:51:21;;;;;;;;;8.75;8.50;;;;;28.97;43.34;101123.22;5098094;27;45206;-61
2021/09/05 09:53:46;;;;;;;;;10.25;10.00;;;;;29.01;43.39;101125.19;5097780;27;45312;-61
2021/09/05 09:56:20;;;;;;;;;8.00;7.00;;;;;29.08;43.66;101133.16;5097782;27;45325;-60
2021/09/05 09:58:46;;;;;;;;;14.00;9.25;;;;;29.21;43.52;101128.44;5097983;27;45189;-61
2021/09/05 10:01:25;;;;;;;;;11.00;9.25;;;;;29.27;43.98;101133.72;5097873;27;45434;-61
2021/09/05 10:03:51;;;;;;;;;9.00;8.50;;;;;29.38;43.75;101129.28;5096862;27;46460;-60
2021/09/05 10:06:17;;;;;;;;;8.00;8.00;;;;;29.54;43.22;101126.81;5097447;27;45381;-60
2021/09/05 10:08:43;;;;;;;;;10.25;8.50;;;;;29.68;42.92;101130.78;5079023;27;45457;-60
2021/09/05 10:11:10;;;;;;;;;8.75;8.00;;;;;29.86;42.67;101129.69;5097538;27;45245;-61
2021/09/05 10:13:40;;;;;;;;;12.00;9.75;;;;;30.06;41.96;101131.00;5097028;27;46103;-60
2021/09/05 10:16:05;;;;;;;;;8.75;8.50;;;;;30.14;41.63;101127.06;5097283;27;45938;-60
2021/09/05 10:18:31;;;;;;;;;8.75;8.75;;;;;30.26;41.42;101122.28;5097493;27;45530;-61
2021/09/05 10:20:57;;;;;;;;;11.50;9.50;;;;;30.43;41.46;101114.09;5078750;27;50654;-60
2021/09/05 10:23:44;;;;;;;;;11.00;10.75;;;;;30.59;40.67;101115.06;5077838;27;75511;-60
2021/09/05 10:26:11;;;;;;;;;9.75;9.75;;;;;30.63;40.49;101115.38;5097087;27;45504;-60
2021/09/05 10:28:40;;;;;;;;;9.50;7.75;;;;;30.69;40.46;101114.34;5097348;27;45454;-61
2021/09/05 10:31:07;;;;;;;;;8.50;8.50;;;;;30.84;40.35;101110.13;5097271;27;45491;-60
2021/09/05 10:33:35;;;;;;;;;9.25;9.00;;;;;30.92;39.96;101107.75;5096565;27;46921;-60
2021/09/05 10:36:13;;;;;;;;;8.75;7.75;;;;;31.04;39.85;101112.19;5096983;27;45726;-60
2021/09/05 10:38:42;;;;;;;;;8.25;8.25;;;;;31.19;39.64;101114.22;5096641;27;45350;-60
2021/09/05 10:41:28;;;;;;;;;9.25;8.50;;;;;31.38;39.11;101115.44;5096943;27;45485;-60
2021/09/05 10:43:59;;;;;;;;;10.00;8.00;;;;;31.54;38.98;101101.91;5096473;27;45342;-60
2021/09/05 10:46:35;;;;;;;;;10.00;8.25;;;;;31.69;38.93;101106.63;5096932;27;45239;-60
2021/09/05 10:49:02;;;;;;;;;10.25;9.00;;;;;31.87;38.00;101113.50;5096913;27;45299;-61
2021/09/05 10:51:38;;;;;;;;;9.00;9.00;;;;;31.94;38.30;101114.09;5078751;27;45619;-60
2021/09/05 10:54:08;;;;;;;;;10.50;9.00;;;;;32.01;37.43;101113.81;5096592;27;45459;-60
2021/09/05 10:56:34;;;;;;;;;7.75;7.25;;;;;32.05;37.89;101116.84;5078701;27;45325;-61
2021/09/05 10:59:02;;;;;;;;;7.75;6.50;;;;;32.15;37.99;101108.69;5096710;27;45326;-61
2021/09/05 11:01:35;;;;;;;;;12.00;9.75;;;;;32.29;37.43;101106.34;5096576;27;45252;-61
2021/09/05 11:04:10;;;;;;;;;8.75;8.00;;;;;32.42;37.09;101105.78;5078754;27;46140;-60
2021/09/05 11:06:37;;;;;;;;;8.75;7.75;;;;;32.55;36.90;101107.19;5096697;27;45358;-61
2021/09/05 11:09:22;;;;;;;;;10.50;9.75;;;;;32.60;36.28;101102.81;5096830;27;45300;-60
2021/09/05 11:12:13;;;;;;;;;10.00;9.00;;;;;32.54;35.90;101094.66;5096693;27;45556;-60